To NAV CANADA Home Page Login to a new session Search on AWWS site Disclaimer Vers la page française équivalente Tips FAQ What's new on the site To the Forecasts and Observations / NOTAM section To "File a Flight Plan" website Publications and other links Update of the User's profile FIC Telephone Numbers My Weather Data Folder Route Weather Data Regional Weather Data Local Weather Data To the Forecasts and Observations / NOTAM section
Request Generated 06/15/2019 at 22:34:43 UTC . Weather information available at that time is displayed.


Save this request - Inactive

METAR/TAF

If you find any discrepancies between the coded METAR/TAF and the plain language METAR/TAF please use the coded METAR/TAF. LWIS bulletins are not decoded in plain language.

LONDON/ON    

SPECI CYXU 152214Z 22009G16KT 10SM SCT014 BKN025 BKN055 OVC090 19/16 A2984 RMK 3SC2SC2AC1 SLP104 DENSITY ALT 1700FT=
SPECI
LOCATION
CYXU - LONDON/ON
DATE - TIME
15 JUNE 2019 - 2214 UTC
WIND
220 TRUE @ 9  KNOTS
GUSTS
16 KNOTS
VISIBILITY
10 STAT.  MILES
RUNWAY VISUAL RANGE
WEATHER
CLOUDINESS
SCATTERED CLOUDS (3/8 - 4/8) 1400  FT
BROKEN CLOUDS (5/8 - 7/8) 2500  FT
BROKEN CLOUDS (5/8 - 7/8) 5500  FT
OVERCAST 9000  FT
TEMP / DEWPOINT
19 C / 16 C
ALTIMETER
29.84 IN HG
RECENT WEATHER
WIND SHEAR

METAR CYXU 152200Z 22008KT 12SM -SHRA SCT014 BKN020 OVC090 18/16 A2984 RMK SF3S AC2 CVCTV CLD EMBD SLP105 DENSITY ALT 1700FT=
METAR
LOCATION
CYXU - LONDON/ON
DATE - TIME
15 JUNE 2019 - 2200 UTC
WIND
220 TRUE @ 8  KNOTS
VISIBILITY
12 STAT.  MILES
RUNWAY VISUAL RANGE
WEATHER
LIGHT RAIN SHOWER
CLOUDINESS
SCATTERED CLOUDS (3/8 - 4/8) 1400  FT
BROKEN CLOUDS (5/8 - 7/8) 2000  FT
OVERCAST 9000  FT
TEMP / DEWPOINT
18 C / 16 C
ALTIMETER
29.84 IN HG
RECENT WEATHER
WIND SHEAR

SPECI CYXU 152136Z 23013KT 12SM FEW017 BKN022 OVC090 19/16 A2984 RMK CF1SC5AC2 P104 DENSITY ALT 1700FT=
SPECI
LOCATION
CYXU - LONDON/ON
DATE - TIME
15 JUNE 2019 - 2136 UTC
WIND
230 TRUE @ 13  KNOTS
VISIBILITY
12 STAT.  MILES
RUNWAY VISUAL RANGE
WEATHER
CLOUDINESS
FEW CLOUDS (1/8 - 2/8) 1700  FT
BROKEN CLOUDS (5/8 - 7/8) 2200  FT
OVERCAST 9000  FT
TEMP / DEWPOINT
19 C / 16 C
ALTIMETER
29.84 IN HG
RECENT WEATHER
WIND SHEAR

METAR CYXU 152100Z 21008KT 12SM -SHRA FEW020 BKN062 OVC090 19/16 A2984 RMK CF1S AC2 CVCTV CLD EMBD SLP106 DENSITY ALT 1700FT=
METAR
LOCATION
CYXU - LONDON/ON
DATE - TIME
15 JUNE 2019 - 2100 UTC
WIND
210 TRUE @ 8  KNOTS
VISIBILITY
12 STAT.  MILES
RUNWAY VISUAL RANGE
WEATHER
LIGHT RAIN SHOWER
CLOUDINESS
FEW CLOUDS (1/8 - 2/8) 2000  FT
BROKEN CLOUDS (5/8 - 7/8) 6200  FT
OVERCAST 9000  FT
TEMP / DEWPOINT
19 C / 16 C
ALTIMETER
29.84 IN HG
RECENT WEATHER
WIND SHEAR

SPECI CYXU 152054Z 22008KT 12SM -SHRA FEW020 BKN062 OVC090 19/16 A2984 RMK CF1S AC2 CVCTV CLD EMBD SLP106 DENSITY ALT 1700FT=
SPECI
LOCATION
CYXU - LONDON/ON
DATE - TIME
15 JUNE 2019 - 2054 UTC
WIND
220 TRUE @ 8  KNOTS
VISIBILITY
12 STAT.  MILES
RUNWAY VISUAL RANGE
WEATHER
LIGHT RAIN SHOWER
CLOUDINESS
FEW CLOUDS (1/8 - 2/8) 2000  FT
BROKEN CLOUDS (5/8 - 7/8) 6200  FT
OVERCAST 9000  FT
TEMP / DEWPOINT
19 C / 16 C
ALTIMETER
29.84 IN HG
RECENT WEATHER
WIND SHEAR

METAR CYXU 152000Z 23012KT 12SM FEW019 OVC022 19/15 A2985 RMK CF1SC7 SLP108 DEN TY ALT 1700FT=
METAR
LOCATION
CYXU - LONDON/ON
DATE - TIME
15 JUNE 2019 - 2000 UTC
WIND
230 TRUE @ 12  KNOTS
VISIBILITY
12 STAT.  MILES
RUNWAY VISUAL RANGE
WEATHER
CLOUDINESS
FEW CLOUDS (1/8 - 2/8) 1900  FT
OVERCAST 2200  FT
TEMP / DEWPOINT
19 C / 15 C
ALTIMETER
29.85 IN HG
RECENT WEATHER
WIND SHEAR

TAF AMD CYXU 152113Z 1521/1618 22008KT P6SM FEW020 OVC050 TEMPO 1521/1523 P6SM -SHRA OVC015 FM152300 22008KT P6SM -RA OVC015 TEMPO 1523/1603 4SM SHRA BR BKN007 OVC012 FM160300 05005KT 11/2SM -RA BR OVC005 TEMPO 1603/1608 6SM -SHRA BR FEW005 OVC010 FM160800 06010KT 5SM BR OVC007 FM161100 07010KT P6SM OVC008 FM161300 07008KT P6SM OVC012 FM161600 07008KT P6SM BKN020 OVC050 RMK NXT FCST BY 160000Z=
AMENDED TAF
LOCATION

CYXU - LONDON/ON
VALIDITY [UTC]
15 JUN - 2113 to
16 JUN - 1800
 
TIMES
[UTC]
WIND
[DEGREES TRUE]
VISIBILITY
[STAT. MILES]
WEATHER
CLOUDINESS
[FEET AGL]
 
15 JUN - 2100 to
15 JUN - 2300
220 @ 8 KNOTS
6+
NIL
2000 FEW
5000 FEW
5000 OVERCAST
TEMPORARY CHANGES
15 JUN - 2100 to
15 JUN - 2300
 
6+
LIGHT RAIN SHOWER
1500 OVERCAST
 
15 JUN - 2300 to
16 JUN - 0300
220 @ 8 KNOTS
6+
LIGHT RAIN
1500 OVERCAST
TEMPORARY CHANGES
15 JUN - 2300 to
16 JUN - 0300
 
4
MODERATE RAIN SHOWER
MIST
700 BROKEN
1200 OVERCAST
 
16 JUN - 0300 to
16 JUN - 0800
50 @ 5 KNOTS
1 1/2
LIGHT RAIN
MIST
500 OVERCAST
TEMPORARY CHANGES
16 JUN - 0300 to
16 JUN - 0800
 
6
LIGHT RAIN SHOWER
MIST
500 FEW
1000 FEW
1000 OVERCAST
 
16 JUN - 0800 to
16 JUN - 1100
60 @ 10 KNOTS
5
MIST
700 OVERCAST
 
16 JUN - 1100 to
16 JUN - 1300
70 @ 10 KNOTS
6+
NIL
800 OVERCAST
 
16 JUN - 1300 to
16 JUN - 1600
70 @ 8 KNOTS
6+
NIL
1200 OVERCAST
 
16 JUN - 1600 to
16 JUN - 1800
70 @ 8 KNOTS
6+
NIL
2000 BROKEN
5000 OVERCAST
REMARKS
THE NEXT FORECAST WILL BE ISSUED BY 0000 UTC ON DAY 16




Your time UTC time
Weather data provided by Environment Canada and NAV CANADA